Terminal Aerodrome Forecast
Issued by NWS Brownsville, TX

Home | Current Version | Previous Version | Text Only | Print | Product List | Glossary On
Versions: 1 2 3 4 5 6 7 8 9 10 11 12 13 14 15 16 17 18 19 20 21 22 23 24 25 26 27 28 29
000
FTUS44 KBRO 211500 AAA
TAFMFE
TAF AMD
KMFE 211509Z 2115/2212 33006KT 6SM BR OVC015
      TEMPO 2115/2118 4SM -DZ BR BKN005
     FM220000 11005KT P6SM OVC050
     FM220300 13004KT P6SM SKC
     FM220600 16004KT 4SM BR SKC
     FM220900 17004KT 4SM BR OVC015=

USA.gov is the U.S. government's official web portal to all federal, state and local government web resources and services.